createdAt,value
2018-09-04T00:00:43.508Z,65.25
2018-09-04T00:03:11.230Z,66.40
2018-09-04T00:05:39.021Z,66.04
2018-09-04T00:08:06.721Z,66.62
2018-09-04T00:10:34.444Z,66.34
2018-09-04T00:13:02.374Z,67.11
2018-09-04T00:15:30.137Z,67.72
2018-09-04T00:17:57.909Z,67.96
2018-09-04T00:20:25.672Z,68.97
2018-09-04T00:22:53.436Z,67.46
2018-09-04T00:25:21.225Z,67.72
2018-09-04T00:27:49.050Z,67.08
2018-09-04T00:30:16.847Z,66.29
2018-09-04T00:32:44.586Z,67.17
2018-09-04T00:35:12.429Z,68.23
2018-09-04T00:37:40.204Z,71.11
2018-09-04T00:40:08.141Z,70.07
2018-09-04T00:42:35.903Z,69.84
2018-09-04T00:45:03.843Z,72.01
2018-09-04T00:47:31.615Z,71.98
2018-09-04T00:49:59.317Z,73.70
2018-09-04T00:52:27.094Z,72.62
2018-09-04T00:54:54.773Z,74.20
2018-09-04T00:57:22.498Z,76.05
2018-09-04T00:59:50.233Z,76.71
2018-09-04T01:02:18.036Z,78.07
2018-09-04T01:04:46.893Z,77.52
2018-09-04T01:07:14.908Z,77.27
2018-09-04T01:09:42.621Z,77.04
2018-09-04T01:12:10.398Z,77.26
2018-09-04T01:14:38.086Z,77.82
2018-09-04T01:17:06.034Z,76.72
2018-09-04T01:19:33.756Z,76.99
2018-09-04T01:22:01.566Z,76.53
2018-09-04T01:24:29.315Z,77.37
2018-09-04T01:26:57.080Z,77.06
2018-09-04T01:29:24.848Z,77.04
2018-09-04T01:31:52.540Z,77.67
2018-09-04T01:34:20.351Z,76.45
2018-09-04T01:36:48.163Z,77.02
2018-09-04T01:39:15.854Z,78.27
2018-09-04T01:41:43.586Z,78.62
2018-09-04T01:44:11.354Z,78.27
2018-09-04T01:46:39.334Z,78.13
2018-09-04T01:49:07.114Z,80.58
2018-09-04T01:51:34.857Z,81.15
2018-09-04T01:54:02.578Z,80.85
2018-09-04T01:56:30.379Z,81.46
2018-09-04T01:58:58.140Z,81.07
2018-09-04T02:01:26.008Z,80.23
2018-09-04T02:03:53.803Z,80.74
2018-09-04T02:06:21.530Z,80.50
2018-09-04T02:08:49.274Z,80.98
2018-09-04T02:11:17.011Z,80.95
2018-09-04T02:13:44.684Z,81.59
2018-09-04T02:16:12.441Z,81.28
2018-09-04T02:18:40.215Z,80.90
2018-09-04T02:21:07.947Z,82.34
2018-09-04T02:23:35.656Z,81.43
2018-09-04T02:26:03.450Z,82.29
2018-09-04T02:28:31.193Z,81.78
2018-09-04T02:30:58.987Z,80.16
2018-09-04T02:33:26.769Z,80.38
2018-09-04T02:35:54.493Z,79.79
2018-09-04T02:38:22.118Z,80.83
2018-09-04T02:40:49.911Z,80.20
2018-09-04T02:43:17.666Z,79.70
2018-09-04T02:45:45.362Z,79.38
2018-09-04T02:48:13.126Z,79.96
2018-09-04T02:50:40.828Z,79.84
2018-09-04T02:53:08.610Z,79.22
2018-09-04T02:55:36.404Z,79.70
2018-09-04T02:58:04.193Z,79.10
2018-09-04T03:00:31.921Z,79.01
2018-09-04T03:02:59.665Z,79.43
2018-09-04T03:05:27.386Z,79.76
2018-09-04T03:07:55.186Z,79.69
2018-09-04T03:10:22.991Z,79.59
2018-09-04T03:12:50.803Z,78.88
2018-09-04T03:15:18.501Z,78.74
2018-09-04T03:17:46.267Z,80.12
2018-09-04T03:20:13.910Z,81.38
2018-09-04T03:22:41.675Z,81.35
2018-09-04T03:25:09.455Z,81.27
2018-09-04T03:27:37.191Z,81.74
2018-09-04T03:30:05.030Z,82.29
2018-09-04T03:32:32.820Z,81.79
2018-09-04T03:35:00.606Z,82.04
2018-09-04T03:37:28.338Z,82.14
2018-09-04T03:39:56.075Z,81.80
2018-09-04T03:42:23.893Z,81.19
2018-09-04T03:44:51.691Z,80.17
2018-09-04T03:47:19.469Z,80.29
2018-09-04T03:49:47.161Z,79.63
2018-09-04T03:52:14.936Z,79.21
2018-09-04T03:54:42.802Z,79.59
2018-09-04T03:57:10.567Z,78.53
2018-09-04T03:59:38.291Z,78.64
2018-09-04T04:02:06.371Z,77.70
2018-09-04T04:04:34.075Z,78.23
2018-09-04T04:07:01.751Z,78.14
2018-09-04T04:09:29.554Z,77.03
2018-09-04T04:11:57.311Z,76.84
2018-09-04T04:14:25.078Z,77.43
2018-09-04T04:16:52.969Z,76.70
2018-09-04T04:19:20.729Z,75.51
2018-09-04T04:21:48.495Z,74.92
2018-09-04T04:24:16.283Z,75.36
2018-09-04T04:26:44.055Z,75.68
2018-09-04T04:29:11.884Z,74.83
2018-09-04T04:31:39.707Z,75.19
2018-09-04T04:34:07.439Z,76.41
2018-09-04T04:36:35.166Z,76.34
2018-09-04T04:39:03.283Z,75.36
2018-09-04T04:41:31.014Z,74.31
2018-09-04T04:43:58.835Z,73.76
2018-09-04T04:46:26.588Z,74.27
2018-09-04T04:48:54.286Z,73.65
2018-09-04T04:51:21.997Z,73.52
2018-09-04T04:53:49.753Z,72.40
2018-09-04T04:56:17.469Z,72.06
2018-09-04T04:58:45.176Z,71.47
2018-09-04T05:01:12.962Z,72.20
2018-09-04T05:03:40.704Z,72.34
2018-09-04T05:06:08.406Z,68.72
2018-09-04T05:08:36.211Z,65.76
2018-09-04T05:11:04.018Z,64.95
2018-09-04T05:13:31.657Z,64.84
2018-09-04T05:15:59.445Z,63.42
2018-09-04T05:18:27.154Z,60.96
2018-09-04T05:20:55.005Z,62.53
2018-09-04T05:23:22.859Z,69.25
2018-09-04T05:25:50.638Z,71.31
2018-09-04T05:28:18.362Z,69.17
2018-09-04T05:30:46.126Z,66.71
2018-09-04T05:33:16.634Z,65.59
2018-09-04T05:35:46.739Z,65.64
2018-09-04T05:38:14.458Z,60.44
2018-09-04T05:40:42.449Z,58.87
2018-09-04T05:43:12.697Z,61.53
2018-09-04T05:45:40.953Z,61.85
2018-09-04T05:48:10.621Z,64.60
2018-09-04T05:50:38.500Z,68.20
2018-09-04T05:53:06.392Z,67.24
2018-09-04T05:55:34.053Z,64.71
2018-09-04T05:58:02.263Z,67.95
2018-09-04T06:00:33.383Z,67.00
2018-09-04T06:03:01.202Z,63.94
2018-09-04T06:05:28.914Z,64.48
2018-09-04T06:07:56.654Z,62.64
2018-09-04T06:10:24.341Z,63.78
2018-09-04T06:12:52.043Z,62.88
2018-09-04T06:15:19.805Z,61.81
2018-09-04T06:17:52.870Z,58.80
2018-09-04T06:20:20.612Z,56.13
2018-09-04T06:22:48.381Z,56.37
2018-09-04T06:25:16.203Z,58.22
2018-09-04T06:27:43.944Z,57.01
2018-09-04T06:30:11.709Z,51.72
2018-09-04T06:32:39.433Z,50.01
2018-09-04T06:35:07.214Z,49.40
2018-09-04T06:37:34.998Z,51.24
2018-09-04T06:40:02.876Z,51.04
2018-09-04T06:42:30.604Z,47.82
2018-09-04T06:44:58.339Z,47.83
2018-09-04T06:47:26.058Z,46.95
2018-09-04T06:49:53.921Z,48.29
2018-09-04T06:52:21.617Z,48.47
2018-09-04T06:54:49.373Z,50.15
2018-09-04T06:57:17.144Z,53.41
2018-09-04T06:59:44.821Z,52.19
2018-09-04T07:02:12.622Z,52.58
2018-09-04T07:04:40.330Z,54.32
2018-09-04T07:07:08.376Z,52.28
2018-09-04T07:09:36.148Z,49.55
2018-09-04T07:12:03.910Z,47.46
2018-09-04T07:14:31.788Z,44.88
2018-09-04T07:16:59.660Z,47.82
2018-09-04T07:19:27.427Z,47.03
2018-09-04T07:21:55.149Z,48.09
2018-09-04T07:24:22.907Z,44.93
2018-09-04T07:26:50.679Z,43.85
2018-09-04T07:29:18.488Z,45.08
2018-09-04T07:31:46.356Z,44.59
2018-09-04T07:34:14.045Z,43.99
2018-09-04T07:36:41.784Z,44.13
2018-09-04T07:39:10.722Z,44.57
2018-09-04T07:41:38.894Z,45.04
2018-09-04T07:44:06.939Z,40.96
2018-09-04T07:46:34.781Z,43.13
2018-09-04T07:49:02.680Z,43.96
2018-09-04T07:51:30.575Z,43.69
2018-09-04T07:53:58.416Z,41.95
2018-09-04T07:56:26.229Z,44.18
2018-09-04T07:58:53.973Z,42.93
2018-09-04T08:01:21.896Z,43.46
2018-09-04T08:03:49.772Z,43.19
2018-09-04T08:06:17.526Z,42.77
2018-09-04T08:08:46.270Z,42.65
2018-09-04T08:11:14.131Z,43.17
2018-09-04T08:13:41.985Z,42.24
2018-09-04T08:16:09.851Z,41.43
2018-09-04T08:18:38.017Z,41.31
2018-09-04T08:21:06.069Z,41.80
2018-09-04T08:23:34.754Z,41.71
2018-09-04T08:26:02.477Z,42.34
2018-09-04T08:28:30.199Z,43.19
2018-09-04T08:30:58.024Z,40.87
2018-09-04T08:33:25.824Z,39.14
2018-09-04T08:35:53.713Z,38.18
2018-09-04T08:38:21.474Z,37.50
2018-09-04T08:40:49.198Z,37.74
2018-09-04T08:43:17.116Z,37.92
2018-09-04T08:45:44.816Z,39.00
2018-09-04T08:48:18.024Z,39.46
2018-09-04T08:50:45.946Z,38.16
2018-09-04T08:53:14.090Z,38.85
2018-09-04T08:55:41.779Z,36.98
2018-09-04T08:58:09.666Z,38.03
2018-09-04T09:00:37.505Z,37.82
2018-09-04T09:03:05.491Z,40.60
2018-09-04T09:05:33.430Z,40.60
2018-09-04T09:08:01.212Z,39.88
2018-09-04T09:10:29.057Z,38.96
2018-09-04T09:12:56.848Z,41.60
2018-09-04T09:15:24.629Z,42.02
2018-09-04T09:17:52.428Z,40.53
2018-09-04T09:20:20.232Z,41.51
2018-09-04T09:22:48.035Z,40.78
2018-09-04T09:25:15.706Z,37.94
2018-09-04T09:27:43.620Z,37.65
2018-09-04T09:30:12.100Z,36.54
2018-09-04T09:32:39.814Z,38.08
2018-09-04T09:35:07.615Z,37.01
2018-09-04T09:37:35.422Z,38.06
2018-09-04T09:40:03.405Z,35.30
2018-09-04T09:42:31.278Z,34.29
2018-09-04T09:44:59.018Z,33.29
2018-09-04T09:47:26.846Z,33.86
2018-09-04T09:49:54.589Z,32.89
2018-09-04T09:52:22.354Z,33.59
2018-09-04T09:54:50.086Z,35.32
2018-09-04T09:57:17.934Z,35.34
2018-09-04T09:59:45.739Z,35.13
2018-09-04T10:02:18.269Z,34.24
2018-09-04T10:04:46.105Z,36.39
2018-09-04T10:07:13.796Z,35.01
2018-09-04T10:09:41.702Z,36.09
2018-09-04T10:12:09.567Z,36.32
2018-09-04T10:14:37.426Z,39.76
2018-09-04T10:17:05.317Z,40.44
2018-09-04T10:19:33.154Z,40.20
2018-09-04T10:22:01.140Z,39.11
2018-09-04T10:24:29.015Z,39.75
2018-09-04T10:26:56.915Z,37.51
2018-09-04T10:29:24.854Z,36.07
2018-09-04T10:31:52.608Z,31.97
2018-09-04T10:34:20.341Z,34.94
2018-09-04T10:36:48.137Z,34.96
2018-09-04T10:39:21.605Z,33.08
2018-09-04T10:41:49.290Z,32.40
2018-09-04T10:44:17.059Z,31.12
2018-09-04T10:46:45.286Z,32.74
2018-09-04T10:49:13.027Z,30.84
2018-09-04T10:51:40.730Z,31.67
2018-09-04T10:54:08.573Z,34.00
2018-09-04T10:56:36.362Z,35.46
2018-09-04T10:59:04.095Z,33.84
2018-09-04T11:01:31.834Z,31.56
2018-09-04T11:03:59.614Z,30.59
2018-09-04T11:06:27.285Z,30.18
2018-09-04T11:08:55.030Z,30.32
2018-09-04T11:11:22.715Z,29.72
2018-09-04T11:13:50.415Z,30.92
2018-09-04T11:16:18.175Z,31.60
2018-09-04T11:18:45.865Z,31.48
2018-09-04T11:21:13.646Z,32.53
2018-09-04T11:23:41.402Z,31.30
2018-09-04T11:26:09.037Z,30.94
2018-09-04T11:28:40.323Z,32.31
2018-09-04T11:31:08.038Z,32.08
2018-09-04T11:33:35.781Z,30.91
2018-09-04T11:36:03.453Z,31.19
2018-09-04T11:38:31.181Z,29.85
2018-09-04T11:40:58.915Z,29.62
2018-09-04T11:43:26.647Z,30.52
2018-09-04T11:45:54.362Z,32.82
2018-09-04T11:48:22.051Z,32.60
2018-09-04T11:50:49.724Z,33.72
2018-09-04T11:53:17.439Z,32.45
2018-09-04T11:55:45.260Z,30.99
2018-09-04T11:58:12.922Z,31.38
2018-09-04T12:00:43.713Z,31.04
2018-09-04T12:03:13.056Z,33.51
2018-09-04T12:05:40.975Z,34.72
2018-09-04T12:08:09.018Z,33.80
2018-09-04T12:10:36.964Z,32.30
2018-09-04T12:13:05.144Z,32.76
2018-09-04T12:15:32.997Z,32.41
2018-09-04T12:18:00.810Z,31.30
2018-09-04T12:20:34.686Z,30.73
2018-09-04T12:23:02.468Z,30.39
2018-09-04T12:25:30.364Z,29.96
2018-09-04T12:27:58.106Z,29.47
2018-09-04T12:30:25.816Z,28.51
2018-09-04T12:32:53.540Z,30.46
2018-09-04T12:35:21.488Z,29.40
2018-09-04T12:37:49.278Z,29.40
2018-09-04T12:40:17.087Z,29.83
2018-09-04T12:42:45.297Z,28.37
2018-09-04T12:45:13.074Z,28.08
2018-09-04T12:47:40.838Z,29.20
2018-09-04T12:50:08.642Z,30.18
2018-09-04T12:52:36.329Z,29.42
2018-09-04T12:55:04.249Z,28.33
2018-09-04T12:57:32.185Z,29.70
2018-09-04T12:59:59.988Z,29.54
2018-09-04T13:02:27.741Z,29.79
2018-09-04T13:04:55.469Z,30.56
2018-09-04T13:07:23.183Z,31.77
2018-09-04T13:09:50.887Z,30.27
2018-09-04T13:12:18.622Z,29.94
2018-09-04T13:14:46.414Z,28.30
2018-09-04T13:17:14.093Z,27.37
2018-09-04T13:19:41.918Z,25.83
2018-09-04T13:22:09.669Z,28.13
2018-09-04T13:24:37.383Z,29.93
2018-09-04T13:27:05.117Z,28.94
2018-09-04T13:29:32.811Z,28.91
2018-09-04T13:32:00.632Z,28.24
2018-09-04T13:34:28.424Z,27.71
2018-09-04T13:36:56.133Z,26.79
2018-09-04T13:39:23.826Z,26.63
2018-09-04T13:41:51.539Z,27.05
2018-09-04T13:44:19.268Z,26.61
2018-09-04T13:46:46.950Z,27.25
2018-09-04T13:49:14.694Z,29.16
2018-09-04T13:51:42.399Z,30.82
2018-09-04T13:54:10.176Z,30.41
2018-09-04T13:56:37.884Z,31.38
2018-09-04T13:59:05.698Z,31.80
2018-09-04T14:01:33.432Z,31.20
2018-09-04T14:04:01.423Z,30.61
2018-09-04T14:06:30.061Z,30.00
2018-09-04T14:08:57.836Z,29.92
2018-09-04T14:11:25.534Z,29.43
2018-09-04T14:13:53.213Z,29.36
2018-09-04T14:16:23.059Z,28.88
2018-09-04T14:18:51.013Z,29.19
2018-09-04T14:21:18.723Z,29.66
2018-09-04T14:23:46.491Z,30.09
2018-09-04T14:26:14.236Z,30.00
2018-09-04T14:28:41.969Z,29.76
2018-09-04T14:31:09.702Z,29.46
2018-09-04T14:33:37.501Z,28.34
2018-09-04T14:36:05.286Z,28.96
2018-09-04T14:38:32.917Z,30.14
2018-09-04T14:41:00.710Z,30.34
2018-09-04T14:43:28.459Z,29.79
2018-09-04T14:45:56.199Z,29.34
2018-09-04T14:48:24.841Z,29.19
2018-09-04T14:50:52.890Z,29.35
2018-09-04T14:53:20.614Z,30.83
2018-09-04T14:55:48.366Z,33.48
2018-09-04T14:58:16.290Z,33.77
2018-09-04T15:00:44.018Z,33.92
2018-09-04T15:03:11.787Z,34.96
2018-09-04T15:05:39.494Z,35.11
2018-09-04T15:08:07.165Z,36.44
2018-09-04T15:10:34.921Z,35.22
2018-09-04T15:13:02.691Z,35.61
2018-09-04T15:15:30.471Z,35.96
2018-09-04T15:17:58.239Z,36.83
2018-09-04T15:20:25.953Z,36.54
2018-09-04T15:22:54.424Z,35.67
2018-09-04T15:25:22.275Z,35.87
2018-09-04T15:27:49.964Z,35.78
2018-09-04T15:30:17.725Z,36.32
2018-09-04T15:32:45.606Z,36.84
2018-09-04T15:35:13.327Z,37.41
2018-09-04T15:37:41.050Z,36.89
2018-09-04T15:40:08.822Z,36.98
2018-09-04T15:42:36.609Z,37.48
2018-09-04T15:45:04.453Z,35.81
2018-09-04T15:47:32.194Z,36.42
2018-09-04T15:49:59.868Z,37.78
2018-09-04T15:52:27.561Z,37.01
2018-09-04T15:54:55.394Z,35.86
2018-09-04T15:57:23.116Z,36.44
2018-09-04T15:59:50.798Z,36.84
2018-09-04T16:02:18.513Z,38.13
2018-09-04T16:04:46.241Z,39.04
2018-09-04T16:07:13.945Z,41.76
2018-09-04T16:09:41.693Z,42.88
2018-09-04T16:12:09.418Z,44.12
2018-09-04T16:14:37.125Z,43.24
2018-09-04T16:17:04.907Z,44.04
2018-09-04T16:19:32.632Z,43.53
2018-09-04T16:22:00.510Z,44.36
2018-09-04T16:24:28.274Z,43.71
2018-09-04T16:26:55.958Z,44.78
2018-09-04T16:29:23.700Z,44.05
2018-09-04T16:31:51.448Z,43.77
2018-09-04T16:34:19.237Z,43.61
2018-09-04T16:36:46.901Z,44.02
2018-09-04T16:39:14.669Z,44.34
2018-09-04T16:41:42.420Z,43.89
2018-09-04T16:44:10.134Z,43.40
2018-09-04T16:46:37.901Z,42.75
2018-09-04T16:49:05.653Z,43.49
2018-09-04T16:51:33.338Z,42.79
2018-09-04T16:54:01.059Z,43.66
2018-09-04T16:56:28.790Z,43.44
2018-09-04T16:58:56.513Z,44.00
2018-09-04T17:01:24.386Z,44.53
2018-09-04T17:03:52.089Z,44.44
2018-09-04T17:06:19.809Z,45.11
2018-09-04T17:08:47.664Z,45.63
2018-09-04T17:11:15.425Z,45.80
2018-09-04T17:13:43.112Z,45.51
2018-09-04T17:16:10.865Z,46.62
2018-09-04T17:18:38.575Z,45.28
2018-09-04T17:21:06.337Z,45.98
2018-09-04T17:23:34.100Z,46.17
2018-09-04T17:26:01.906Z,46.07
2018-09-04T17:28:29.627Z,46.07
2018-09-04T17:30:57.528Z,46.72
2018-09-04T17:33:25.222Z,46.36
2018-09-04T17:35:53.064Z,45.65
2018-09-04T17:38:20.847Z,45.98
2018-09-04T17:40:48.525Z,46.50
2018-09-04T17:43:16.223Z,46.93
2018-09-04T17:45:44.041Z,47.15
2018-09-04T17:48:11.849Z,48.94
2018-09-04T17:50:39.557Z,49.38
2018-09-04T17:53:07.328Z,51.17
2018-09-04T17:55:35.010Z,52.43
2018-09-04T17:58:02.719Z,53.63
2018-09-04T18:00:30.481Z,54.87
2018-09-04T18:02:58.309Z,55.34
2018-09-04T18:05:26.029Z,56.02
2018-09-04T18:07:53.777Z,55.95
2018-09-04T18:10:21.517Z,55.22
2018-09-04T18:12:49.210Z,56.03
2018-09-04T18:15:16.925Z,56.50
2018-09-04T18:17:44.616Z,55.59
2018-09-04T18:20:12.334Z,55.81
2018-09-04T18:22:40.327Z,56.91
2018-09-04T18:25:08.100Z,57.78
2018-09-04T18:27:35.837Z,56.07
2018-09-04T18:30:03.688Z,56.50
2018-09-04T18:32:31.383Z,56.56
2018-09-04T18:34:59.156Z,56.87
2018-09-04T18:37:26.907Z,58.17
2018-09-04T18:39:54.976Z,58.21
2018-09-04T18:42:23.008Z,57.38
2018-09-04T18:44:50.784Z,58.32
2018-09-04T18:47:18.488Z,56.93
2018-09-04T18:49:46.201Z,57.86
2018-09-04T18:52:13.894Z,56.98
2018-09-04T18:54:41.649Z,56.18
2018-09-04T18:57:09.417Z,56.03
2018-09-04T18:59:37.247Z,55.77
2018-09-04T19:02:05.050Z,56.48
2018-09-04T19:04:32.801Z,56.94
2018-09-04T19:07:00.774Z,56.09
2018-09-04T19:09:28.476Z,55.89
2018-09-04T19:11:56.180Z,55.01
2018-09-04T19:14:23.942Z,54.29
2018-09-04T19:16:51.680Z,54.73
2018-09-04T19:19:19.369Z,54.50
2018-09-04T19:21:47.109Z,53.29
2018-09-04T19:24:15.611Z,52.50
2018-09-04T19:26:43.341Z,53.54
2018-09-04T19:29:11.116Z,54.00
2018-09-04T19:31:38.805Z,54.80
2018-09-04T19:34:06.504Z,54.11
2018-09-04T19:36:34.241Z,54.13
2018-09-04T19:39:01.954Z,54.77
2018-09-04T19:41:29.633Z,55.18
2018-09-04T19:43:57.360Z,54.32
2018-09-04T19:46:25.017Z,55.12
2018-09-04T19:48:52.728Z,54.91
2018-09-04T19:51:20.463Z,55.83
2018-09-04T19:53:48.148Z,55.37
2018-09-04T19:56:15.950Z,54.64
2018-09-04T19:58:43.707Z,54.31
2018-09-04T20:01:11.518Z,53.20
2018-09-04T20:03:39.225Z,52.12
2018-09-04T20:06:06.981Z,52.55
2018-09-04T20:08:34.669Z,51.69
2018-09-04T20:11:02.374Z,51.28
2018-09-04T20:13:30.149Z,53.27
2018-09-04T20:15:57.891Z,53.50
2018-09-04T20:18:25.596Z,54.34
2018-09-04T20:20:53.324Z,54.77
2018-09-04T20:23:21.017Z,54.29
2018-09-04T20:25:48.728Z,53.28
2018-09-04T20:28:16.408Z,53.61
2018-09-04T20:30:44.218Z,53.76
2018-09-04T20:33:11.948Z,54.53
2018-09-04T20:35:39.689Z,55.42
2018-09-04T20:38:07.431Z,55.50
2018-09-04T20:40:35.220Z,54.93
2018-09-04T20:43:02.935Z,56.13
2018-09-04T20:45:30.671Z,57.18
2018-09-04T20:47:58.415Z,56.51
2018-09-04T20:50:26.315Z,56.83
2018-09-04T20:52:54.405Z,56.63
2018-09-04T20:55:22.118Z,57.28
2018-09-04T20:58:00.949Z,56.44
2018-09-04T21:00:39.941Z,57.19
2018-09-04T21:03:18.941Z,57.36
2018-09-04T21:05:57.982Z,56.66
2018-09-04T21:08:43.528Z,56.04
2018-09-04T21:11:11.325Z,54.77
2018-09-04T21:13:39.083Z,54.13
2018-09-04T21:16:06.895Z,54.50
2018-09-04T21:18:34.684Z,55.32
2018-09-04T21:21:02.464Z,57.33
2018-09-04T21:23:30.327Z,58.13
2018-09-04T21:25:58.192Z,59.22
2018-09-04T21:28:25.972Z,59.66
2018-09-04T21:30:53.819Z,60.24
2018-09-04T21:38:50.365Z,61.61
2018-09-04T21:41:18.229Z,62.15
2018-09-04T21:43:45.902Z,61.45
2018-09-04T21:46:13.646Z,61.91
2018-09-04T21:48:41.494Z,63.85
2018-09-04T21:51:09.231Z,63.53
2018-09-04T21:53:37.074Z,62.46
2018-09-04T21:56:04.841Z,61.23
2018-09-04T21:58:32.517Z,60.93
2018-09-04T22:01:00.390Z,59.46
2018-09-04T22:03:28.200Z,59.67
2018-09-04T22:05:56.063Z,59.06
2018-09-04T22:08:23.882Z,58.16
2018-09-04T22:10:51.599Z,59.67
2018-09-04T22:13:19.395Z,60.01
2018-09-04T22:15:47.262Z,58.37
2018-09-04T22:18:14.977Z,58.02
2018-09-04T22:20:42.653Z,58.29
2018-09-04T22:23:10.399Z,57.23
2018-09-04T22:25:38.130Z,57.10
2018-09-04T22:28:05.948Z,58.00
2018-09-04T22:30:33.823Z,58.96
2018-09-04T22:33:01.573Z,58.49
2018-09-04T22:35:29.347Z,59.10
2018-09-04T22:37:57.089Z,58.56
2018-09-04T22:40:24.821Z,58.92
2018-09-04T22:42:52.566Z,58.51
2018-09-04T22:45:20.418Z,58.77
2018-09-04T22:47:48.180Z,58.74
2018-09-04T22:50:21.393Z,59.28
2018-09-04T22:52:49.119Z,60.24
2018-09-04T22:55:16.850Z,60.01
2018-09-04T22:57:44.730Z,59.54
2018-09-04T23:00:13.632Z,59.29
2018-09-04T23:02:41.340Z,59.36
2018-09-04T23:05:09.130Z,59.98
2018-09-04T23:07:36.859Z,60.50
2018-09-04T23:10:04.859Z,60.97
2018-09-04T23:12:32.634Z,60.61
2018-09-04T23:15:00.386Z,60.02
2018-09-04T23:17:28.205Z,59.80
2018-09-04T23:19:56.150Z,60.14
2018-09-04T23:22:23.930Z,61.04
2018-09-04T23:24:51.659Z,60.11
2018-09-04T23:27:19.439Z,60.08
2018-09-04T23:29:47.226Z,61.11
2018-09-04T23:32:14.933Z,61.26
2018-09-04T23:34:42.720Z,60.96
2018-09-04T23:37:10.543Z,62.21
2018-09-04T23:39:38.265Z,62.57
2018-09-04T23:42:06.058Z,61.61
2018-09-04T23:44:33.822Z,61.85
2018-09-04T23:47:01.883Z,62.65
2018-09-04T23:49:29.762Z,62.56
2018-09-04T23:51:57.610Z,61.88
2018-09-04T23:54:25.814Z,61.89
2018-09-04T23:56:53.726Z,60.88
2018-09-04T23:59:21.489Z,61.21
